Time,TemperatureF,DewpointF,PressureIn,WindDirection,WindDirectionDegrees,WindSpeedMPH,WindSpeedGustMPH,Humidity,HourlyPrecipIn,Conditions,Clouds,dailyrainin,SoftwareType,DateUTC
2013-01-27 00:01:00,18.2,14.7,30.46,West,272,0.0,3.0,86,0.00,,---,0.00,VWS V14.01,2013-01-27 05:01:00,
2013-01-27 00:04:00,18.2,14.7,30.46,West,272,0.0,0.0,86,0.00,,---,0.00,VWS V14.01,2013-01-27 05:04:00,
2013-01-27 00:08:00,18.1,14.6,30.46,West,272,0.0,1.0,86,0.00,,---,0.00,VWS V14.01,2013-01-27 05:08:00,
2013-01-27 00:14:00,18.1,14.6,30.46,West,272,0.0,2.0,86,0.00,,---,0.00,VWS V14.01,2013-01-27 05:14:00,
2013-01-27 00:20:00,18.0,14.5,30.46,West,272,1.0,2.0,86,0.00,,---,0.00,VWS V14.01,2013-01-27 05:20:00,
2013-01-27 00:26:00,18.0,14.5,30.46,West,272,0.0,2.0,86,0.00,,---,0.00,VWS V14.01,2013-01-27 05:26:00,
2013-01-27 00:32:00,18.0,14.5,30.46,West,272,0.0,1.0,86,0.00,,---,0.00,VWS V14.01,2013-01-27 05:32:00,
2013-01-27 00:39:00,18.0,14.5,30.45,West,272,0.0,1.0,86,0.00,,---,0.00,VWS V14.01,2013-01-27 05:39:00,
2013-01-27 00:45:00,17.9,14.4,30.45,West,272,0.0,1.0,86,0.00,,---,0.00,VWS V14.01,2013-01-27 05:45:00,
2013-01-27 00:51:00,17.9,14.4,30.46,West,272,0.0,1.0,86,0.00,,---,0.00,VWS V14.01,2013-01-27 05:51:00,
2013-01-27 00:57:00,17.8,14.3,30.46,West,272,0.0,1.0,86,0.00,,---,0.00,VWS V14.01,2013-01-27 05:57:00,
2013-01-27 01:03:00,17.8,14.3,30.46,West,272,0.0,0.0,86,0.00,,---,0.00,VWS V14.01,2013-01-27 06:03:00,
2013-01-27 01:09:00,17.7,14.2,30.46,West,272,0.0,0.0,86,0.00,,---,0.00,VWS V14.01,2013-01-27 06:09:00,
2013-01-27 01:15:00,17.5,14.0,30.45,West,272,0.0,0.0,86,0.00,,---,0.00,VWS V14.01,2013-01-27 06:15:00,
2013-01-27 01:21:00,17.3,13.8,30.45,West,272,0.0,0.0,86,0.00,,---,0.00,VWS V14.01,2013-01-27 06:21:00,
2013-01-27 01:27:00,17.1,13.6,30.46,West,272,0.0,0.0,86,0.00,,---,0.00,VWS V14.01,2013-01-27 06:27:00,
2013-01-27 01:33:00,16.8,13.4,30.46,West,272,0.0,0.0,86,0.00,,---,0.00,VWS V14.01,2013-01-27 06:33:00,
2013-01-27 01:39:00,16.5,13.1,30.46,West,272,0.0,0.0,86,0.00,,---,0.00,VWS V14.01,2013-01-27 06:39:00,
2013-01-27 01:45:00,16.3,13.1,30.46,West,272,0.0,0.0,87,0.00,,---,0.00,VWS V14.01,2013-01-27 06:45:00,
2013-01-27 01:51:00,16.1,12.9,30.46,West,272,0.0,0.0,87,0.00,,---,0.00,VWS V14.01,2013-01-27 06:51:00,
2013-01-27 01:57:00,15.9,12.5,30.47,West,272,0.0,1.0,86,0.00,,---,0.00,VWS V14.01,2013-01-27 06:57:00,
2013-01-27 02:03:00,15.5,12.1,30.47,West,272,0.0,0.0,86,0.00,,---,0.00,VWS V14.01,2013-01-27 07:03:00,
2013-01-27 02:14:00,15.3,12.1,30.48,West,272,0.0,0.0,87,0.00,,---,0.00,VWS V14.01,2013-01-27 07:14:00,
2013-01-27 02:20:00,15.0,11.8,30.47,West,272,0.0,1.0,87,0.00,,---,0.00,VWS V14.01,2013-01-27 07:20:00,
2013-01-27 02:26:00,14.9,11.7,30.48,West,272,0.0,1.0,87,0.00,,---,0.00,VWS V14.01,2013-01-27 07:26:00,
2013-01-27 02:31:00,14.9,12.0,30.48,West,272,0.0,1.0,88,0.00,,---,0.00,VWS V14.01,2013-01-27 07:31:00,
2013-01-27 02:38:00,14.9,12.0,30.49,West,272,0.0,0.0,88,0.00,,---,0.00,VWS V14.01,2013-01-27 07:38:00,
2013-01-27 02:44:00,15.0,12.1,30.49,West,272,0.0,1.0,88,0.00,,---,0.00,VWS V14.01,2013-01-27 07:44:00,
2013-01-27 02:50:00,15.0,12.1,30.49,West,272,0.0,1.0,88,0.00,,---,0.00,VWS V14.01,2013-01-27 07:50:00,
2013-01-27 02:56:00,14.9,12.0,30.49,West,272,0.0,1.0,88,0.00,,---,0.00,VWS V14.01,2013-01-27 07:56:00,
2013-01-27 03:01:00,15.0,12.1,30.49,West,272,0.0,1.0,88,0.00,,---,0.00,VWS V14.01,2013-01-27 08:01:00,
2013-01-27 03:06:00,15.1,12.2,30.49,West,272,0.0,0.0,88,0.00,,---,0.00,VWS V14.01,2013-01-27 08:06:00,
2013-01-27 03:12:00,15.2,12.3,30.49,West,272,0.0,0.0,88,0.00,,---,0.00,VWS V14.01,2013-01-27 08:12:00,
2013-01-27 03:18:00,15.2,12.3,30.49,West,272,0.0,0.0,88,0.00,,---,0.00,VWS V14.01,2013-01-27 08:18:00,
2013-01-27 03:24:00,15.3,12.4,30.50,West,272,0.0,1.0,88,0.00,,---,0.00,VWS V14.01,2013-01-27 08:24:00,
2013-01-27 03:30:00,15.2,12.3,30.50,West,272,0.0,1.0,88,0.00,,---,0.00,VWS V14.01,2013-01-27 08:30:00,
2013-01-27 03:37:00,15.2,12.3,30.50,West,272,0.0,0.0,88,0.00,,---,0.00,VWS V14.01,2013-01-27 08:37:00,
2013-01-27 03:43:00,15.0,12.1,30.50,West,272,0.0,0.0,88,0.00,,---,0.00,VWS V14.01,2013-01-27 08:43:00,
2013-01-27 03:49:00,15.1,12.4,30.50,West,272,0.0,0.0,89,0.00,,---,0.00,VWS V14.01,2013-01-27 08:49:00,
2013-01-27 03:55:00,15.1,12.2,30.50,West,272,0.0,1.0,88,0.00,,---,0.00,VWS V14.01,2013-01-27 08:55:00,
2013-01-27 04:01:00,14.9,12.0,30.50,West,272,0.0,1.0,88,0.00,,---,0.00,VWS V14.01,2013-01-27 09:01:00,
2013-01-27 04:07:00,14.9,12.0,30.49,West,272,0.0,2.0,88,0.00,,---,0.00,VWS V14.01,2013-01-27 09:07:00,
2013-01-27 04:13:00,15.1,12.2,30.49,West,272,0.0,2.0,88,0.00,,---,0.00,VWS V14.01,2013-01-27 09:13:00,
2013-01-27 04:19:00,15.3,12.6,30.48,West,272,0.0,2.0,89,0.00,,---,0.00,VWS V14.01,2013-01-27 09:19:00,
2013-01-27 04:25:00,15.6,12.9,30.48,West,272,0.0,2.0,89,0.00,,---,0.00,VWS V14.01,2013-01-27 09:25:00,
2013-01-27 04:31:00,16.0,13.3,30.49,West,272,0.0,2.0,89,0.00,,---,0.00,VWS V14.01,2013-01-27 09:31:00,
2013-01-27 04:37:00,16.3,13.6,30.49,West,272,0.0,0.0,89,0.00,,---,0.00,VWS V14.01,2013-01-27 09:37:00,
2013-01-27 04:43:00,16.4,13.7,30.49,West,272,0.0,0.0,89,0.00,,---,0.00,VWS V14.01,2013-01-27 09:43:00,
2013-01-27 04:49:00,16.3,13.4,30.49,West,272,0.0,0.0,88,0.00,,---,0.00,VWS V14.01,2013-01-27 09:49:00,
2013-01-27 04:55:00,15.8,12.9,30.48,West,272,0.0,3.0,88,0.00,,---,0.00,VWS V14.01,2013-01-27 09:55:00,
2013-01-27 05:01:00,15.7,12.8,30.48,West,272,0.0,3.0,88,0.00,,---,0.00,VWS V14.01,2013-01-27 10:01:00,
2013-01-27 05:07:00,15.5,12.6,30.48,West,272,0.0,1.0,88,0.00,,---,0.00,VWS V14.01,2013-01-27 10:07:00,
2013-01-27 05:13:00,15.5,12.6,30.48,West,272,0.0,1.0,88,0.00,,---,0.00,VWS V14.01,2013-01-27 10:13:00,
2013-01-27 05:19:00,15.5,12.6,30.48,West,272,0.0,1.0,88,0.00,,---,0.00,VWS V14.01,2013-01-27 10:19:00,
2013-01-27 05:25:00,15.5,12.6,30.48,West,272,0.0,1.0,88,0.00,,---,0.00,VWS V14.01,2013-01-27 10:25:00,
2013-01-27 05:31:00,15.6,12.7,30.48,West,272,0.0,1.0,88,0.00,,---,0.00,VWS V14.01,2013-01-27 10:31:00,
2013-01-27 05:37:00,15.8,12.9,30.49,West,272,0.0,0.0,88,0.00,,---,0.00,VWS V14.01,2013-01-27 10:37:00,
2013-01-27 05:44:00,15.8,12.9,30.49,West,272,0.0,1.0,88,0.00,,---,0.00,VWS V14.01,2013-01-27 10:44:00,
2013-01-27 05:50:00,15.9,13.0,30.50,West,272,0.0,1.0,88,0.00,,---,0.00,VWS V14.01,2013-01-27 10:50:00,
2013-01-27 05:56:00,15.9,13.0,30.51,West,272,0.0,1.0,88,0.00,,---,0.00,VWS V14.01,2013-01-27 10:56:00,
2013-01-27 06:01:00,16.0,13.1,30.52,West,272,0.0,3.0,88,0.00,,---,0.00,VWS V14.01,2013-01-27 11:01:00,
2013-01-27 06:08:00,16.1,13.2,30.51,West,272,0.0,2.0,88,0.00,,---,0.00,VWS V14.01,2013-01-27 11:08:00,
2013-01-27 06:14:00,16.1,13.2,30.52,West,272,0.0,2.0,88,0.00,,---,0.00,VWS V14.01,2013-01-27 11:14:00,
2013-01-27 06:20:00,16.0,13.3,30.52,West,272,0.0,2.0,89,0.00,,---,0.00,VWS V14.01,2013-01-27 11:20:00,
2013-01-27 06:26:00,16.1,13.4,30.52,West,272,0.0,2.0,89,0.00,,---,0.00,VWS V14.01,2013-01-27 11:26:00,
2013-01-27 06:31:00,16.2,13.5,30.51,West,272,0.0,2.0,89,0.00,,---,0.00,VWS V14.01,2013-01-27 11:31:00,
2013-01-27 06:38:00,16.2,13.5,30.52,West,272,0.0,0.0,89,0.00,,---,0.00,VWS V14.01,2013-01-27 11:38:00,
2013-01-27 06:44:00,16.3,13.6,30.51,West,272,0.0,0.0,89,0.00,,---,0.00,VWS V14.01,2013-01-27 11:44:00,
2013-01-27 06:50:00,16.4,13.7,30.52,West,272,0.0,1.0,89,0.00,,---,0.00,VWS V14.01,2013-01-27 11:50:00,
2013-01-27 06:56:00,16.4,13.7,30.51,West,272,0.0,1.0,89,0.00,,---,0.00,VWS V14.01,2013-01-27 11:56:00,
2013-01-27 07:01:00,16.4,13.7,30.52,West,272,0.0,1.0,89,0.00,,---,0.00,VWS V14.01,2013-01-27 12:01:00,
2013-01-27 07:08:00,16.4,13.5,30.52,West,272,0.0,1.0,88,0.00,,---,0.00,VWS V14.01,2013-01-27 12:08:00,
2013-01-27 07:14:00,16.4,13.5,30.52,West,272,0.0,1.0,88,0.00,,---,0.00,VWS V14.01,2013-01-27 12:14:00,
2013-01-27 07:20:00,16.5,13.8,30.52,West,272,0.0,1.0,89,0.00,,---,0.00,VWS V14.01,2013-01-27 12:20:00,
2013-01-27 07:26:00,16.5,13.8,30.51,West,272,0.0,1.0,89,0.00,,---,0.00,VWS V14.01,2013-01-27 12:26:00,
2013-01-27 07:32:00,16.5,13.6,30.52,West,272,0.0,0.0,88,0.00,,---,0.00,VWS V14.01,2013-01-27 12:32:00,
2013-01-27 07:38:00,16.4,13.5,30.52,West,272,0.0,0.0,88,0.00,,---,0.00,VWS V14.01,2013-01-27 12:38:00,
2013-01-27 07:44:00,16.4,13.5,30.52,West,272,0.0,2.0,88,0.00,,---,0.00,VWS V14.01,2013-01-27 12:44:00,
2013-01-27 07:51:00,16.4,13.5,30.53,West,272,0.0,2.0,88,0.00,,---,0.00,VWS V14.01,2013-01-27 12:51:00,
2013-01-27 07:57:00,16.5,13.6,30.53,West,272,0.0,2.0,88,0.00,,---,0.00,VWS V14.01,2013-01-27 12:57:00,
2013-01-27 08:03:00,16.6,13.7,30.53,West,272,0.0,0.0,88,0.00,,---,0.00,VWS V14.01,2013-01-27 13:03:00,
2013-01-27 08:09:00,16.7,13.8,30.53,West,272,0.0,1.0,88,0.00,,---,0.00,VWS V14.01,2013-01-27 13:09:00,
2013-01-27 08:15:00,16.8,13.9,30.53,West,272,0.0,1.0,88,0.00,,---,0.00,VWS V14.01,2013-01-27 13:15:00,
2013-01-27 08:21:00,17.0,14.1,30.54,West,272,0.0,1.0,88,0.00,,---,0.00,VWS V14.01,2013-01-27 13:21:00,
2013-01-27 08:27:00,17.1,14.2,30.54,West,272,0.0,1.0,88,0.00,,---,0.00,VWS V14.01,2013-01-27 13:27:00,
2013-01-27 08:33:00,17.2,14.3,30.55,West,272,0.0,0.0,88,0.00,,---,0.00,VWS V14.01,2013-01-27 13:33:00,
2013-01-27 08:39:00,17.2,14.3,30.55,West,272,0.0,2.0,88,0.00,,---,0.00,VWS V14.01,2013-01-27 13:39:00,
2013-01-27 08:45:00,17.1,14.2,30.55,West,272,0.0,2.0,88,0.00,,---,0.00,VWS V14.01,2013-01-27 13:45:00,
2013-01-27 08:51:00,17.1,14.2,30.54,West,272,0.0,2.0,88,0.00,,---,0.00,VWS V14.01,2013-01-27 13:51:00,
2013-01-27 08:57:00,17.4,14.5,30.54,West,272,0.0,2.0,88,0.00,,---,0.00,VWS V14.01,2013-01-27 13:57:00,
2013-01-27 09:03:00,17.7,14.8,30.54,West,272,0.0,0.0,88,0.00,,---,0.00,VWS V14.01,2013-01-27 14:03:00,
2013-01-27 09:09:00,18.2,15.2,30.55,West,272,0.0,0.0,88,0.00,,---,0.00,VWS V14.01,2013-01-27 14:09:00,
2013-01-27 09:17:00,18.6,15.4,30.54,West,272,0.0,0.0,87,0.00,,---,0.00,VWS V14.01,2013-01-27 14:17:00,
2013-01-27 09:23:00,18.9,15.4,30.54,West,272,0.0,0.0,86,0.00,,---,0.00,VWS V14.01,2013-01-27 14:23:00,
2013-01-27 09:30:00,19.3,15.8,30.54,West,272,0.0,1.0,86,0.00,,---,0.00,VWS V14.01,2013-01-27 14:30:00,
2013-01-27 09:36:00,19.7,15.9,30.54,West,272,1.0,2.0,85,0.00,,---,0.00,VWS V14.01,2013-01-27 14:36:00,
2013-01-27 09:42:00,19.9,15.9,30.54,West,272,0.0,2.0,84,0.00,,---,0.00,VWS V14.01,2013-01-27 14:42:00,
2013-01-27 09:48:00,20.2,16.1,30.54,West,272,0.0,2.0,84,0.00,,---,0.00,VWS V14.01,2013-01-27 14:48:00,
2013-01-27 09:54:00,20.8,16.7,30.55,West,272,0.0,2.0,84,0.00,,---,0.00,VWS V14.01,2013-01-27 14:54:00,
2013-01-27 10:00:00,21.1,16.5,30.54,West,272,2.0,2.0,82,0.00,,---,0.00,VWS V14.01,2013-01-27 15:00:00,
2013-01-27 10:06:00,21.6,16.7,30.54,West,272,0.0,2.0,81,0.00,,---,0.00,VWS V14.01,2013-01-27 15:06:00,
2013-01-27 10:12:00,22.1,16.6,30.54,West,272,2.0,2.0,79,0.00,,---,0.00,VWS V14.01,2013-01-27 15:12:00,
2013-01-27 10:18:00,22.4,16.3,30.55,West,272,0.0,2.0,77,0.00,,---,0.00,VWS V14.01,2013-01-27 15:18:00,
2013-01-27 10:24:00,22.6,16.2,30.56,West,272,0.0,3.0,76,0.00,,---,0.00,VWS V14.01,2013-01-27 15:24:00,
2013-01-27 10:30:00,22.4,16.0,30.56,West,272,0.0,3.0,76,0.00,,---,0.00,VWS V14.01,2013-01-27 15:30:00,
2013-01-27 10:36:00,21.8,15.4,30.57,West,272,0.0,4.0,76,0.00,,---,0.00,VWS V14.01,2013-01-27 15:36:00,
2013-01-27 10:42:00,21.7,15.3,30.56,West,272,0.0,4.0,76,0.00,,---,0.00,VWS V14.01,2013-01-27 15:42:00,
2013-01-27 10:48:00,21.9,15.5,30.55,West,272,2.0,4.0,76,0.00,,---,0.00,VWS V14.01,2013-01-27 15:48:00,
2013-01-27 10:54:00,22.3,15.6,30.56,West,272,0.0,4.0,75,0.00,,---,0.00,VWS V14.01,2013-01-27 15:54:00,
2013-01-27 11:00:00,23.0,16.0,30.55,West,272,0.0,4.0,74,0.00,,---,0.00,VWS V14.01,2013-01-27 16:00:00,
2013-01-27 11:06:00,23.6,16.2,30.55,West,272,0.0,3.0,73,0.00,,---,0.00,VWS V14.01,2013-01-27 16:06:00,
2013-01-27 11:13:00,23.8,16.1,30.55,West,267,0.0,5.0,72,0.00,,---,0.00,VWS V14.01,2013-01-27 16:13:00,
2013-01-27 11:19:00,24.0,16.0,30.55,WSW,257,2.0,5.0,71,0.00,,---,0.00,VWS V14.01,2013-01-27 16:19:00,
2013-01-27 11:25:00,23.6,15.6,30.55,WNW,285,0.0,5.0,71,0.00,,---,0.00,VWS V14.01,2013-01-27 16:25:00,
2013-01-27 11:31:00,23.1,15.1,30.55,WNW,287,3.0,5.0,71,0.00,,---,0.00,VWS V14.01,2013-01-27 16:31:00,
2013-01-27 11:37:00,23.2,15.5,30.54,SSW,205,3.0,5.0,72,0.00,,---,0.00,VWS V14.01,2013-01-27 16:37:00,
2013-01-27 11:43:00,24.0,16.0,30.54,SW,220,4.0,5.0,71,0.00,,---,0.00,VWS V14.01,2013-01-27 16:43:00,
2013-01-27 11:49:00,24.2,15.2,30.53,West,263,2.0,5.0,68,0.00,,---,0.00,VWS V14.01,2013-01-27 16:49:00,
2013-01-27 11:55:00,23.5,15.2,30.53,West,263,1.0,5.0,70,0.00,,---,0.00,VWS V14.01,2013-01-27 16:55:00,
2013-01-27 12:01:00,24.3,15.9,30.53,NNE,21,1.0,5.0,70,0.00,,---,0.00,VWS V14.01,2013-01-27 17:01:00,
2013-01-27 12:07:00,24.6,15.2,30.52,West,271,2.0,4.0,67,0.00,,---,0.00,VWS V14.01,2013-01-27 17:07:00,
2013-01-27 12:13:00,25.2,16.1,30.52,SSE,153,0.0,4.0,68,0.01,,---,0.01,VWS V14.01,2013-01-27 17:13:00,
2013-01-27 12:19:00,25.9,16.1,30.52,West,281,2.0,4.0,66,0.01,,---,0.01,VWS V14.01,2013-01-27 17:19:00,
2013-01-27 12:25:00,26.2,16.4,30.51,SW,227,1.0,6.0,66,0.01,,---,0.01,VWS V14.01,2013-01-27 17:25:00,
2013-01-27 12:31:00,26.7,16.2,30.50,East,101,0.0,6.0,64,0.01,,---,0.01,VWS V14.01,2013-01-27 17:31:00,
2013-01-27 12:37:00,26.9,16.0,30.50,West,267,3.0,5.0,63,0.01,,---,0.01,VWS V14.01,2013-01-27 17:37:00,
2013-01-27 12:43:00,27.4,16.5,30.50,NNE,25,1.0,5.0,63,0.02,,---,0.02,VWS V14.01,2013-01-27 17:43:00,
2013-01-27 12:49:00,27.5,16.2,30.50,WSW,257,3.0,5.0,62,0.03,,---,0.03,VWS V14.01,2013-01-27 17:49:00,
2013-01-27 12:55:00,28.3,16.6,30.50,WNW,290,0.0,5.0,61,0.03,,---,0.03,VWS V14.01,2013-01-27 17:55:00,
2013-01-27 13:01:00,28.8,16.7,30.50,SSW,205,0.0,5.0,60,0.03,,---,0.03,VWS V14.01,2013-01-27 18:01:00,
2013-01-27 13:07:00,29.4,16.1,30.50,WSW,244,2.0,3.0,57,0.04,,---,0.04,VWS V14.01,2013-01-27 18:07:00,
2013-01-27 13:13:00,28.4,15.5,30.49,SE,141,2.0,6.0,58,0.05,,---,0.05,VWS V14.01,2013-01-27 18:13:00,
2013-01-27 13:20:00,27.8,15.7,30.49,WNW,291,0.0,6.0,60,0.05,,---,0.05,VWS V14.01,2013-01-27 18:20:00,
2013-01-27 13:26:00,28.3,16.2,30.49,WNW,293,0.0,6.0,60,0.05,,---,0.05,VWS V14.01,2013-01-27 18:26:00,
2013-01-27 13:31:00,28.9,16.0,30.49,South,180,0.0,6.0,58,0.06,,---,0.06,VWS V14.01,2013-01-27 18:31:00,
2013-01-27 13:38:00,29.2,16.3,30.49,SSE,167,0.0,4.0,58,0.06,,---,0.07,VWS V14.01,2013-01-27 18:38:00,
2013-01-27 13:44:00,28.4,15.1,30.49,West,260,4.0,7.0,57,0.06,,---,0.07,VWS V14.01,2013-01-27 18:44:00,
2013-01-27 13:50:00,27.1,14.7,30.49,West,281,6.0,9.0,59,0.06,,---,0.07,VWS V14.01,2013-01-27 18:50:00,
2013-01-27 13:56:00,27.0,15.0,30.49,South,182,0.0,9.0,60,0.07,,---,0.08,VWS V14.01,2013-01-27 18:56:00,
2013-01-27 14:01:00,27.6,15.6,30.48,West,259,2.0,9.0,60,0.07,,---,0.08,VWS V14.01,2013-01-27 19:01:00,
2013-01-27 14:08:00,28.3,15.8,30.49,WSW,250,2.0,6.0,59,0.06,,---,0.09,VWS V14.01,2013-01-27 19:08:00,
2013-01-27 14:14:00,28.9,16.0,30.49,West,279,1.0,6.0,58,0.06,,---,0.09,VWS V14.01,2013-01-27 19:14:00,
2013-01-27 14:20:00,30.2,16.8,30.48,SSE,153,2.0,6.0,57,0.06,,---,0.09,VWS V14.01,2013-01-27 19:20:00,
2013-01-27 14:26:00,30.5,16.3,30.48,SW,223,1.0,6.0,55,0.06,,---,0.09,VWS V14.01,2013-01-27 19:26:00,
2013-01-27 14:31:00,30.3,15.2,30.47,SW,235,3.0,6.0,53,0.07,,---,0.10,VWS V14.01,2013-01-27 19:31:00,
2013-01-27 14:38:00,28.5,14.4,30.47,WNW,285,0.0,6.0,55,0.04,,---,0.10,VWS V14.01,2013-01-27 19:38:00,
2013-01-27 14:44:00,28.9,15.6,30.48,WSW,238,1.0,6.0,57,0.04,,---,0.10,VWS V14.01,2013-01-27 19:44:00,
2013-01-27 14:50:00,29.3,15.1,30.47,WSW,239,0.0,6.0,55,0.05,,---,0.11,VWS V14.01,2013-01-27 19:50:00,
2013-01-27 14:56:00,29.7,16.4,30.48,WSW,239,3.0,6.0,57,0.05,,---,0.11,VWS V14.01,2013-01-27 19:56:00,
2013-01-27 15:02:00,30.0,15.8,30.48,WSW,239,0.0,2.0,55,0.03,,---,0.11,VWS V14.01,2013-01-27 20:02:00,
2013-01-27 15:08:00,30.1,15.5,30.47,SSW,206,2.0,4.0,54,0.03,,---,0.11,VWS V14.01,2013-01-27 20:08:00,
2013-01-27 15:15:00,29.4,14.8,30.48,WSW,247,1.0,4.0,54,0.03,,---,0.11,VWS V14.01,2013-01-27 20:15:00,
2013-01-27 15:21:00,28.9,15.2,30.48,WSW,247,1.0,4.0,56,0.03,,---,0.11,VWS V14.01,2013-01-27 20:21:00,
2013-01-27 15:27:00,28.7,15.0,30.48,West,269,1.0,5.0,56,0.04,,---,0.12,VWS V14.01,2013-01-27 20:27:00,
2013-01-27 15:33:00,28.5,15.2,30.48,West,269,0.0,2.0,57,0.02,,---,0.12,VWS V14.01,2013-01-27 20:33:00,
2013-01-27 15:39:00,28.7,15.8,30.47,West,269,1.0,2.0,58,0.02,,---,0.12,VWS V14.01,2013-01-27 20:39:00,
2013-01-27 15:45:00,29.0,15.7,30.47,West,269,0.0,2.0,57,0.02,,---,0.12,VWS V14.01,2013-01-27 20:45:00,
2013-01-27 15:51:00,29.4,15.7,30.47,West,269,1.0,2.0,56,0.02,,---,0.12,VWS V14.01,2013-01-27 20:51:00,
2013-01-27 15:57:00,29.1,15.8,30.47,West,269,0.0,2.0,57,0.02,,---,0.12,VWS V14.01,2013-01-27 20:57:00,
2013-01-27 16:03:00,29.1,16.2,30.46,West,269,0.0,2.0,58,0.01,,---,0.12,VWS V14.01,2013-01-27 21:03:00,
2013-01-27 16:09:00,29.2,15.9,30.46,West,269,0.0,2.0,57,0.01,,---,0.12,VWS V14.01,2013-01-27 21:09:00,
2013-01-27 16:15:00,29.0,14.9,30.46,West,269,0.0,2.0,55,0.01,,---,0.12,VWS V14.01,2013-01-27 21:15:00,
2013-01-27 16:21:00,29.0,15.7,30.46,West,269,0.0,2.0,57,0.01,,---,0.12,VWS V14.01,2013-01-27 21:21:00,
2013-01-27 16:27:00,28.9,16.0,30.46,West,269,0.0,2.0,58,0.01,,---,0.12,VWS V14.01,2013-01-27 21:27:00,
2013-01-27 16:33:00,28.6,16.1,30.46,West,269,0.0,1.0,59,0.00,,---,0.12,VWS V14.01,2013-01-27 21:33:00,
2013-01-27 16:39:00,28.3,15.4,30.46,West,269,0.0,2.0,58,0.00,,---,0.12,VWS V14.01,2013-01-27 21:39:00,
2013-01-27 16:45:00,28.0,15.9,30.45,West,269,2.0,2.0,60,0.01,,---,0.13,VWS V14.01,2013-01-27 21:45:00,
2013-01-27 16:51:00,27.7,15.3,30.45,West,269,0.0,3.0,59,0.01,,---,0.13,VWS V14.01,2013-01-27 21:51:00,
2013-01-27 16:57:00,27.3,15.3,30.45,SE,140,0.0,3.0,60,0.01,,---,0.13,VWS V14.01,2013-01-27 21:57:00,
2013-01-27 17:03:00,27.1,15.4,30.45,ESE,122,1.0,3.0,61,0.01,,---,0.13,VWS V14.01,2013-01-27 22:03:00,
2013-01-27 17:09:00,26.8,15.2,30.44,ESE,122,0.0,3.0,61,0.01,,---,0.13,VWS V14.01,2013-01-27 22:09:00,
2013-01-27 17:15:00,26.6,15.4,30.43,SSE,148,1.0,5.0,62,0.01,,---,0.13,VWS V14.01,2013-01-27 22:15:00,
2013-01-27 17:22:00,26.3,15.4,30.43,SSE,148,1.0,5.0,63,0.01,,---,0.13,VWS V14.01,2013-01-27 22:22:00,
2013-01-27 17:28:00,26.1,15.6,30.43,SSE,148,0.0,5.0,64,0.01,,---,0.13,VWS V14.01,2013-01-27 22:28:00,
2013-01-27 17:34:00,25.9,15.4,30.42,SSE,148,0.0,2.0,64,0.01,,---,0.13,VWS V14.01,2013-01-27 22:34:00,
2013-01-27 17:40:00,25.7,15.6,30.42,SSE,148,1.0,3.0,65,0.01,,---,0.13,VWS V14.01,2013-01-27 22:40:00,
2013-01-27 17:46:00,25.6,15.1,30.42,SSE,147,0.0,3.0,64,0.01,,---,0.13,VWS V14.01,2013-01-27 22:46:00,
2013-01-27 17:52:00,25.5,15.7,30.42,SSE,147,0.0,3.0,66,0.01,,---,0.13,VWS V14.01,2013-01-27 22:52:00,
2013-01-27 17:58:00,25.4,15.6,30.43,SE,146,0.0,3.0,66,0.01,,---,0.13,VWS V14.01,2013-01-27 22:58:00,
2013-01-27 18:04:00,25.2,15.8,30.42,SSE,147,0.0,0.0,67,0.00,,---,0.13,VWS V14.01,2013-01-27 23:04:00,
2013-01-27 18:10:00,25.1,15.7,30.42,SE,146,0.0,2.0,67,0.00,,---,0.13,VWS V14.01,2013-01-27 23:10:00,
2013-01-27 18:16:00,24.9,15.2,30.42,SSE,147,0.0,2.0,66,0.00,,---,0.13,VWS V14.01,2013-01-27 23:16:00,
2013-01-27 18:22:00,24.8,15.8,30.43,SSE,147,0.0,2.0,68,0.00,,---,0.13,VWS V14.01,2013-01-27 23:22:00,
2013-01-27 18:28:00,24.5,15.5,30.43,SE,146,0.0,2.0,68,0.00,,---,0.13,VWS V14.01,2013-01-27 23:28:00,
2013-01-27 18:34:00,24.4,15.0,30.43,SW,232,0.0,3.0,67,0.00,,---,0.13,VWS V14.01,2013-01-27 23:34:00,
2013-01-27 18:40:00,24.3,14.9,30.43,SW,232,0.0,3.0,67,0.00,,---,0.13,VWS V14.01,2013-01-27 23:40:00,
2013-01-27 18:46:00,24.2,15.2,30.43,SW,232,0.0,3.0,68,0.00,,---,0.13,VWS V14.01,2013-01-27 23:46:00,
2013-01-27 18:52:00,23.9,14.9,30.43,SW,232,0.0,3.0,68,0.00,,---,0.13,VWS V14.01,2013-01-27 23:52:00,
2013-01-27 18:58:00,23.8,15.1,30.43,SW,232,0.0,3.0,69,0.00,,---,0.13,VWS V14.01,2013-01-27 23:58:00,
2013-01-27 19:05:00,23.8,15.1,30.42,SW,232,0.0,1.0,69,0.00,,---,0.13,VWS V14.01,2013-01-28 00:05:00,
2013-01-27 19:11:00,23.9,15.2,30.43,SW,232,0.0,2.0,69,0.00,,---,0.13,VWS V14.01,2013-01-28 00:11:00,
2013-01-27 19:17:00,23.9,15.2,30.43,SW,232,0.0,2.0,69,0.00,,---,0.13,VWS V14.01,2013-01-28 00:17:00,
2013-01-27 19:23:00,24.0,15.3,30.44,SW,232,0.0,2.0,69,0.00,,---,0.13,VWS V14.01,2013-01-28 00:23:00,
2013-01-27 19:29:00,24.1,15.4,30.43,SW,232,1.0,2.0,69,0.00,,---,0.13,VWS V14.01,2013-01-28 00:29:00,
2013-01-27 19:35:00,24.2,15.5,30.42,SW,232,0.0,1.0,69,0.00,,---,0.13,VWS V14.01,2013-01-28 00:35:00,
2013-01-27 19:41:00,24.4,15.7,30.42,SW,232,0.0,2.0,69,0.00,,---,0.13,VWS V14.01,2013-01-28 00:41:00,
2013-01-27 19:47:00,24.4,15.7,30.42,SW,232,1.0,2.0,69,0.00,,---,0.13,VWS V14.01,2013-01-28 00:47:00,
2013-01-27 19:53:00,24.4,16.0,30.43,SW,232,0.0,3.0,70,0.00,,---,0.13,VWS V14.01,2013-01-28 00:53:00,
2013-01-27 19:59:00,24.5,15.8,30.41,SE,131,1.0,6.0,69,0.00,,---,0.13,VWS V14.01,2013-01-28 00:59:00,
2013-01-27 20:05:00,24.5,15.8,30.42,SSE,150,1.0,2.0,69,0.00,,---,0.13,VWS V14.01,2013-01-28 01:05:00,
2013-01-27 20:11:00,24.6,15.9,30.41,SSE,149,1.0,2.0,69,0.00,,---,0.13,VWS V14.01,2013-01-28 01:11:00,
2013-01-27 20:17:00,24.7,16.0,30.40,SSE,150,1.0,3.0,69,0.00,,---,0.13,VWS V14.01,2013-01-28 01:17:00,
2013-01-27 20:23:00,24.7,16.0,30.40,ESE,122,2.0,4.0,69,0.00,,---,0.13,VWS V14.01,2013-01-28 01:23:00,
2013-01-27 20:29:00,24.8,16.1,30.39,ESE,119,0.0,4.0,69,0.00,,---,0.13,VWS V14.01,2013-01-28 01:29:00,
2013-01-27 20:35:00,24.8,16.1,30.39,ESE,120,0.0,2.0,69,0.00,,---,0.13,VWS V14.01,2013-01-28 01:35:00,
2013-01-27 20:41:00,24.8,15.8,30.39,SE,142,0.0,4.0,68,0.00,,---,0.13,VWS V14.01,2013-01-28 01:41:00,
2013-01-27 20:47:00,24.8,16.1,30.40,SE,141,0.0,4.0,69,0.00,,---,0.13,VWS V14.01,2013-01-28 01:47:00,
2013-01-27 20:53:00,24.8,16.4,30.40,SW,218,0.0,4.0,70,0.00,,---,0.13,VWS V14.01,2013-01-28 01:53:00,
2013-01-27 20:59:00,24.9,16.5,30.40,SE,133,2.0,4.0,70,0.00,,---,0.13,VWS V14.01,2013-01-28 01:59:00,
2013-01-27 21:05:00,24.9,16.2,30.40,SE,133,0.0,2.0,69,0.00,,---,0.13,VWS V14.01,2013-01-28 02:05:00,
2013-01-27 21:11:00,24.9,16.5,30.41,SE,133,0.0,2.0,70,0.00,,---,0.13,VWS V14.01,2013-01-28 02:11:00,
2013-01-27 21:18:00,24.9,17.2,30.41,SE,133,0.0,2.0,72,0.00,,---,0.13,VWS V14.01,2013-01-28 02:18:00,
2013-01-27 21:24:00,24.9,17.2,30.40,West,280,0.0,2.0,72,0.00,,---,0.13,VWS V14.01,2013-01-28 02:24:00,
2013-01-27 21:30:00,24.9,16.5,30.40,West,281,1.0,2.0,70,0.00,,---,0.13,VWS V14.01,2013-01-28 02:30:00,
2013-01-27 21:36:00,25.0,16.6,30.40,West,281,0.0,2.0,70,0.00,,---,0.13,VWS V14.01,2013-01-28 02:36:00,
2013-01-27 21:42:00,25.1,16.4,30.40,West,281,0.0,2.0,69,0.00,,---,0.13,VWS V14.01,2013-01-28 02:42:00,
2013-01-27 21:48:00,25.2,16.8,30.40,WNW,283,0.0,2.0,70,0.00,,---,0.13,VWS V14.01,2013-01-28 02:48:00,
2013-01-27 21:54:00,25.3,16.9,30.39,WNW,283,0.0,2.0,70,0.00,,---,0.13,VWS V14.01,2013-01-28 02:54:00,
2013-01-27 22:00:00,25.3,16.9,30.40,WNW,283,0.0,2.0,70,0.00,,---,0.13,VWS V14.01,2013-01-28 03:00:00,
2013-01-27 22:06:00,25.4,16.7,30.39,WNW,282,2.0,3.0,69,0.00,,---,0.13,VWS V14.01,2013-01-28 03:06:00,
2013-01-27 22:12:00,25.6,16.5,30.39,ESE,109,1.0,4.0,68,0.00,,---,0.13,VWS V14.01,2013-01-28 03:12:00,
2013-01-27 22:18:00,25.8,16.7,30.38,ESE,121,2.0,4.0,68,0.00,,---,0.13,VWS V14.01,2013-01-28 03:18:00,
2013-01-27 22:24:00,25.9,16.8,30.38,ESE,121,0.0,4.0,68,0.00,,---,0.13,VWS V14.01,2013-01-28 03:24:00,
2013-01-27 22:30:00,26.0,16.9,30.39,ESE,121,0.0,4.0,68,0.00,,---,0.13,VWS V14.01,2013-01-28 03:30:00,
2013-01-27 22:36:00,26.0,16.9,30.38,ESE,121,1.0,3.0,68,0.00,,---,0.13,VWS V14.01,2013-01-28 03:36:00,
2013-01-27 22:42:00,26.1,17.0,30.38,ESE,109,1.0,4.0,68,0.00,,---,0.13,VWS V14.01,2013-01-28 03:42:00,
2013-01-27 22:48:00,26.1,16.7,30.37,ESE,123,2.0,4.0,67,0.00,,---,0.13,VWS V14.01,2013-01-28 03:48:00,
2013-01-27 22:54:00,26.2,17.1,30.37,ESE,122,1.0,4.0,68,0.00,,---,0.13,VWS V14.01,2013-01-28 03:54:00,
2013-01-27 23:00:00,26.2,17.1,30.37,ESE,122,0.0,4.0,68,0.00,,---,0.13,VWS V14.01,2013-01-28 04:00:00,
2013-01-27 23:06:00,26.2,16.8,30.36,SSE,154,2.0,3.0,67,0.00,,---,0.13,VWS V14.01,2013-01-28 04:06:00,
2013-01-27 23:12:00,26.2,17.1,30.36,SSE,153,2.0,3.0,68,0.00,,---,0.13,VWS V14.01,2013-01-28 04:12:00,
2013-01-27 23:19:00,26.2,17.1,30.36,SSE,153,1.0,3.0,68,0.00,,---,0.13,VWS V14.01,2013-01-28 04:19:00,
2013-01-27 23:25:00,26.3,17.2,30.36,SE,126,1.0,3.0,68,0.00,,---,0.13,VWS V14.01,2013-01-28 04:25:00,
2013-01-27 23:31:00,26.3,17.2,30.36,SE,136,0.0,3.0,68,0.00,,---,0.13,VWS V14.01,2013-01-28 04:31:00,
2013-01-27 23:37:00,26.3,17.2,30.36,SE,136,0.0,2.0,68,0.00,,---,0.13,VWS V14.01,2013-01-28 04:37:00,
2013-01-27 23:43:00,26.3,17.2,30.36,SE,136,0.0,2.0,68,0.00,,---,0.13,VWS V14.01,2013-01-28 04:43:00,
2013-01-27 23:49:00,26.3,17.2,30.36,SE,136,0.0,2.0,68,0.00,,---,0.13,VWS V14.01,2013-01-28 04:49:00,
2013-01-27 23:55:00,26.3,17.9,30.35,SE,136,1.0,2.0,70,0.00,,---,0.13,VWS V14.01,2013-01-28 04:55:00,